Terminal Aerodrome Forecast
Issued by NWS

Home | Current Version | Previous Version | Graphics & Text | Print | Product List | Glossary On
Versions: 1 2 3 4 5 6 7 8 9 10 11 12 13
571
FTUS42 KMHX 062337
TAFISO
TAF
KISO 062337Z 0700/0724 04006KT P6SM OVC070
     FM070800 01010G15KT 6SM -RASN SCT025 OVC040
     FM071100 02016G22KT 5SM -RASN OVC020
     FM071500 01016G25KT 5SM -RA SCT008 OVC015
      AMD LTD TO CLD VIS AND WIND=

USA.gov is the U.S. government's official web portal to all federal, state and local government web resources and services.